sensor_id;sensor_type;location;lat;lon;timestamp;temperature;humidity
39969;DHT22;25648;47.808;19.004;2022-09-28T00:01:22;18.80;60.70
39969;DHT22;25648;47.808;19.004;2022-09-28T00:03:50;18.80;60.70
39969;DHT22;25648;47.808;19.004;2022-09-28T00:06:19;18.80;61.00
39969;DHT22;25648;47.808;19.004;2022-09-28T00:08:45;18.80;61.20
39969;DHT22;25648;47.808;19.004;2022-09-28T00:11:12;19.00;60.40
39969;DHT22;25648;47.808;19.004;2022-09-28T00:13:40;19.00;60.00
39969;DHT22;25648;47.808;19.004;2022-09-28T00:16:13;18.90;60.50
39969;DHT22;25648;47.808;19.004;2022-09-28T00:18:40;19.00;61.00
39969;DHT22;25648;47.808;19.004;2022-09-28T00:21:08;19.30;59.80
39969;DHT22;25648;47.808;19.004;2022-09-28T00:23:36;19.40;59.50
39969;DHT22;25648;47.808;19.004;2022-09-28T00:26:26;19.60;59.10
39969;DHT22;25648;47.808;19.004;2022-09-28T00:28:53;19.70;59.50
39969;DHT22;25648;47.808;19.004;2022-09-28T00:31:19;19.70;59.00
39969;DHT22;25648;47.808;19.004;2022-09-28T00:33:49;19.80;59.00
39969;DHT22;25648;47.808;19.004;2022-09-28T00:36:14;19.80;58.70
39969;DHT22;25648;47.808;19.004;2022-09-28T00:38:40;19.70;58.90
39969;DHT22;25648;47.808;19.004;2022-09-28T00:41:06;19.60;59.30
39969;DHT22;25648;47.808;19.004;2022-09-28T00:43:32;19.50;59.90
39969;DHT22;25648;47.808;19.004;2022-09-28T00:46:21;19.40;59.30
39969;DHT22;25648;47.808;19.004;2022-09-28T00:48:53;19.40;59.00
39969;DHT22;25648;47.808;19.004;2022-09-28T00:51:22;19.30;58.90
39969;DHT22;25648;47.808;19.004;2022-09-28T00:53:49;19.20;59.50
39969;DHT22;25648;47.808;19.004;2022-09-28T00:56:17;19.00;59.10
39969;DHT22;25648;47.808;19.004;2022-09-28T00:58:49;18.90;59.40
39969;DHT22;25648;47.808;19.004;2022-09-28T01:01:16;18.80;59.90
39969;DHT22;25648;47.808;19.004;2022-09-28T01:03:42;18.60;60.30
39969;DHT22;25648;47.808;19.004;2022-09-28T01:06:19;18.50;59.80
39969;DHT22;25648;47.808;19.004;2022-09-28T01:08:48;18.40;60.20
39969;DHT22;25648;47.808;19.004;2022-09-28T01:11:16;18.50;60.00
39969;DHT22;25648;47.808;19.004;2022-09-28T01:13:42;18.50;59.70
39969;DHT22;25648;47.808;19.004;2022-09-28T01:21:35;18.00;60.00
39969;DHT22;25648;47.808;19.004;2022-09-28T01:27:27;18.10;60.20
39969;DHT22;25648;47.808;19.004;2022-09-28T01:35:19;18.60;58.90
39969;DHT22;25648;47.808;19.004;2022-09-28T01:37:59;18.60;58.80
39969;DHT22;25648;47.808;19.004;2022-09-28T01:40:26;18.50;58.70
39969;DHT22;25648;47.808;19.004;2022-09-28T01:42:58;18.60;58.70
39969;DHT22;25648;47.808;19.004;2022-09-28T01:45:47;18.70;58.90
39969;DHT22;25648;47.808;19.004;2022-09-28T01:48:17;18.70;58.80
39969;DHT22;25648;47.808;19.004;2022-09-28T01:50:45;18.60;58.40
39969;DHT22;25648;47.808;19.004;2022-09-28T01:53:21;18.60;58.70
39969;DHT22;25648;47.808;19.004;2022-09-28T01:55:52;18.50;58.60
39969;DHT22;25648;47.808;19.004;2022-09-28T02:00:56;18.70;58.10
39969;DHT22;25648;47.808;19.004;2022-09-28T02:03:31;18.50;58.60
39969;DHT22;25648;47.808;19.004;2022-09-28T02:06:17;18.20;59.00
39969;DHT22;25648;47.808;19.004;2022-09-28T02:08:50;18.30;58.50
39969;DHT22;25648;47.808;19.004;2022-09-28T02:11:19;18.00;59.20
39969;DHT22;25648;47.808;19.004;2022-09-28T02:14:04;17.70;60.20
39969;DHT22;25648;47.808;19.004;2022-09-28T02:19:00;17.60;60.10
39969;DHT22;25648;47.808;19.004;2022-09-28T02:21:50;17.50;60.30
39969;DHT22;25648;47.808;19.004;2022-09-28T02:24:23;17.60;60.30
39969;DHT22;25648;47.808;19.004;2022-09-28T02:26:54;17.60;60.10
39969;DHT22;25648;47.808;19.004;2022-09-28T02:29:23;17.70;60.10
39969;DHT22;25648;47.808;19.004;2022-09-28T02:31:50;17.80;59.70
39969;DHT22;25648;47.808;19.004;2022-09-28T02:34:16;17.30;59.80
39969;DHT22;25648;47.808;19.004;2022-09-28T02:36:43;17.20;60.90
39969;DHT22;25648;47.808;19.004;2022-09-28T02:39:13;17.10;60.90
39969;DHT22;25648;47.808;19.004;2022-09-28T02:53:28;17.60;60.10
39969;DHT22;25648;47.808;19.004;2022-09-28T03:07:15;17.00;61.30
39969;DHT22;25648;47.808;19.004;2022-09-28T03:09:53;16.90;61.70
39969;DHT22;25648;47.808;19.004;2022-09-28T03:12:22;17.00;61.10
39969;DHT22;25648;47.808;19.004;2022-09-28T03:15:13;17.10;61.40
39969;DHT22;25648;47.808;19.004;2022-09-28T03:17:43;17.20;61.20
39969;DHT22;25648;47.808;19.004;2022-09-28T03:20:09;17.30;60.40
39969;DHT22;25648;47.808;19.004;2022-09-28T03:22:35;17.40;60.40
39969;DHT22;25648;47.808;19.004;2022-09-28T03:25:01;17.50;59.80
39969;DHT22;25648;47.808;19.004;2022-09-28T03:27:27;17.50;59.90
39969;DHT22;25648;47.808;19.004;2022-09-28T03:29:52;17.20;60.30
39969;DHT22;25648;47.808;19.004;2022-09-28T03:32:18;17.10;60.70
39969;DHT22;25648;47.808;19.004;2022-09-28T03:34:43;17.30;60.60
39969;DHT22;25648;47.808;19.004;2022-09-28T03:37:09;17.30;59.90
39969;DHT22;25648;47.808;19.004;2022-09-28T03:39:35;17.10;60.30
39969;DHT22;25648;47.808;19.004;2022-09-28T03:42:01;16.90;60.50
39969;DHT22;25648;47.808;19.004;2022-09-28T03:44:27;16.90;60.90
39969;DHT22;25648;47.808;19.004;2022-09-28T03:46:52;17.00;60.60
39969;DHT22;25648;47.808;19.004;2022-09-28T03:49:19;17.20;60.00
39969;DHT22;25648;47.808;19.004;2022-09-28T03:51:47;17.40;60.40
39969;DHT22;25648;47.808;19.004;2022-09-28T03:54:13;17.30;60.10
39969;DHT22;25648;47.808;19.004;2022-09-28T03:56:39;17.20;60.30
39969;DHT22;25648;47.808;19.004;2022-09-28T03:59:06;17.30;60.00
39969;DHT22;25648;47.808;19.004;2022-09-28T04:01:32;17.10;60.50
39969;DHT22;25648;47.808;19.004;2022-09-28T04:03:57;17.20;60.60
39969;DHT22;25648;47.808;19.004;2022-09-28T04:06:24;17.30;60.50
39969;DHT22;25648;47.808;19.004;2022-09-28T04:08:50;17.10;61.00
39969;DHT22;25648;47.808;19.004;2022-09-28T04:11:16;17.30;60.80
39969;DHT22;25648;47.808;19.004;2022-09-28T04:13:41;17.10;60.80
39969;DHT22;25648;47.808;19.004;2022-09-28T04:16:09;17.30;60.30
39969;DHT22;25648;47.808;19.004;2022-09-28T04:18:35;17.40;60.00
39969;DHT22;25648;47.808;19.004;2022-09-28T04:21:01;17.40;60.00
39969;DHT22;25648;47.808;19.004;2022-09-28T04:23:29;17.40;60.00
39969;DHT22;25648;47.808;19.004;2022-09-28T04:25:55;17.40;59.70
39969;DHT22;25648;47.808;19.004;2022-09-28T04:28:20;17.30;60.70
39969;DHT22;25648;47.808;19.004;2022-09-28T04:31:09;17.50;59.80
39969;DHT22;25648;47.808;19.004;2022-09-28T04:33:35;17.60;59.50
39969;DHT22;25648;47.808;19.004;2022-09-28T04:36:01;17.60;59.70
39969;DHT22;25648;47.808;19.004;2022-09-28T04:38:27;17.50;59.40
39969;DHT22;25648;47.808;19.004;2022-09-28T04:40:53;17.50;59.10
39969;DHT22;25648;47.808;19.004;2022-09-28T04:43:18;17.50;59.40
39969;DHT22;25648;47.808;19.004;2022-09-28T04:45:44;17.40;59.50
39969;DHT22;25648;47.808;19.004;2022-09-28T04:48:10;17.60;59.50
39969;DHT22;25648;47.808;19.004;2022-09-28T04:50:35;17.80;58.70
39969;DHT22;25648;47.808;19.004;2022-09-28T04:53:01;17.80;58.60
39969;DHT22;25648;47.808;19.004;2022-09-28T04:55:27;17.80;58.80
39969;DHT22;25648;47.808;19.004;2022-09-28T04:57:59;17.70;59.00
39969;DHT22;25648;47.808;19.004;2022-09-28T05:00:28;17.70;59.00
39969;DHT22;25648;47.808;19.004;2022-09-28T05:02:54;17.80;58.90
39969;DHT22;25648;47.808;19.004;2022-09-28T05:05:20;17.90;59.10
39969;DHT22;25648;47.808;19.004;2022-09-28T05:07:46;18.00;58.80
39969;DHT22;25648;47.808;19.004;2022-09-28T05:10:12;18.10;58.30
39969;DHT22;25648;47.808;19.004;2022-09-28T05:12:38;18.10;58.60
39969;DHT22;25648;47.808;19.004;2022-09-28T05:15:04;18.20;58.50
39969;DHT22;25648;47.808;19.004;2022-09-28T05:17:29;18.20;58.20
39969;DHT22;25648;47.808;19.004;2022-09-28T05:19:56;18.20;58.30
39969;DHT22;25648;47.808;19.004;2022-09-28T05:22:22;18.00;58.40
39969;DHT22;25648;47.808;19.004;2022-09-28T05:24:48;17.90;58.40
39969;DHT22;25648;47.808;19.004;2022-09-28T05:27:13;17.80;59.40
39969;DHT22;25648;47.808;19.004;2022-09-28T05:29:39;17.90;59.20
39969;DHT22;25648;47.808;19.004;2022-09-28T05:32:05;18.20;58.50
39969;DHT22;25648;47.808;19.004;2022-09-28T05:34:30;18.10;58.40
39969;DHT22;25648;47.808;19.004;2022-09-28T05:36:56;18.00;58.70
39969;DHT22;25648;47.808;19.004;2022-09-28T05:39:22;18.10;58.70
39969;DHT22;25648;47.808;19.004;2022-09-28T05:41:47;18.20;58.50
39969;DHT22;25648;47.808;19.004;2022-09-28T05:44:13;18.20;58.90
39969;DHT22;25648;47.808;19.004;2022-09-28T05:46:39;18.30;58.80
39969;DHT22;25648;47.808;19.004;2022-09-28T05:49:04;18.50;58.40
39969;DHT22;25648;47.808;19.004;2022-09-28T05:51:30;18.40;58.10
39969;DHT22;25648;47.808;19.004;2022-09-28T05:53:56;18.40;58.40
39969;DHT22;25648;47.808;19.004;2022-09-28T05:56:22;18.50;58.40
39969;DHT22;25648;47.808;19.004;2022-09-28T05:58:47;18.60;58.10
39969;DHT22;25648;47.808;19.004;2022-09-28T06:01:13;18.60;58.00
39969;DHT22;25648;47.808;19.004;2022-09-28T06:03:39;18.70;57.50
39969;DHT22;25648;47.808;19.004;2022-09-28T06:06:05;18.70;57.90
39969;DHT22;25648;47.808;19.004;2022-09-28T06:08:31;18.70;57.80
39969;DHT22;25648;47.808;19.004;2022-09-28T06:11:01;18.90;57.20
39969;DHT22;25648;47.808;19.004;2022-09-28T06:13:27;18.80;57.10
39969;DHT22;25648;47.808;19.004;2022-09-28T06:15:53;18.80;57.30
39969;DHT22;25648;47.808;19.004;2022-09-28T06:18:19;18.80;57.30
39969;DHT22;25648;47.808;19.004;2022-09-28T06:20:45;18.90;57.60
39969;DHT22;25648;47.808;19.004;2022-09-28T06:23:13;19.20;57.20
39969;DHT22;25648;47.808;19.004;2022-09-28T06:25:39;19.50;57.00
39969;DHT22;25648;47.808;19.004;2022-09-28T06:28:14;19.60;56.80
39969;DHT22;25648;47.808;19.004;2022-09-28T06:30:42;19.90;56.20
39969;DHT22;25648;47.808;19.004;2022-09-28T06:33:10;19.90;56.70
39969;DHT22;25648;47.808;19.004;2022-09-28T06:35:37;20.00;56.50
39969;DHT22;25648;47.808;19.004;2022-09-28T06:38:03;20.00;55.80
39969;DHT22;25648;47.808;19.004;2022-09-28T06:40:29;20.10;56.00
39969;DHT22;25648;47.808;19.004;2022-09-28T06:42:56;20.00;55.50
39969;DHT22;25648;47.808;19.004;2022-09-28T06:45:23;20.00;55.40
39969;DHT22;25648;47.808;19.004;2022-09-28T06:47:59;19.90;56.10
39969;DHT22;25648;47.808;19.004;2022-09-28T06:50:36;19.90;56.20
39969;DHT22;25648;47.808;19.004;2022-09-28T06:53:04;20.00;56.50
39969;DHT22;25648;47.808;19.004;2022-09-28T06:55:34;20.30;55.70
39969;DHT22;25648;47.808;19.004;2022-09-28T06:58:05;20.50;55.30
39969;DHT22;25648;47.808;19.004;2022-09-28T07:00:38;20.50;55.00
39969;DHT22;25648;47.808;19.004;2022-09-28T07:03:16;20.70;55.20
39969;DHT22;25648;47.808;19.004;2022-09-28T07:05:45;20.90;54.30
39969;DHT22;25648;47.808;19.004;2022-09-28T07:08:12;21.10;54.30
39969;DHT22;25648;47.808;19.004;2022-09-28T07:10:48;21.20;54.50
39969;DHT22;25648;47.808;19.004;2022-09-28T07:13:15;21.40;52.90
39969;DHT22;25648;47.808;19.004;2022-09-28T07:15:42;21.40;53.30
39969;DHT22;25648;47.808;19.004;2022-09-28T07:18:09;21.50;53.90
39969;DHT22;25648;47.808;19.004;2022-09-28T07:20:35;21.50;53.20
39969;DHT22;25648;47.808;19.004;2022-09-28T07:23:04;21.60;53.30
39969;DHT22;25648;47.808;19.004;2022-09-28T07:25:30;21.60;53.30
39969;DHT22;25648;47.808;19.004;2022-09-28T07:28:00;21.60;53.00
39969;DHT22;25648;47.808;19.004;2022-09-28T07:30:28;21.70;53.20
39969;DHT22;25648;47.808;19.004;2022-09-28T07:32:54;21.90;53.70
39969;DHT22;25648;47.808;19.004;2022-09-28T07:35:20;22.10;53.20
39969;DHT22;25648;47.808;19.004;2022-09-28T07:37:47;22.40;53.20
39969;DHT22;25648;47.808;19.004;2022-09-28T07:40:13;22.50;51.40
39969;DHT22;25648;47.808;19.004;2022-09-28T07:43:05;22.60;50.60
39969;DHT22;25648;47.808;19.004;2022-09-28T07:45:31;22.70;51.50
39969;DHT22;25648;47.808;19.004;2022-09-28T07:48:00;22.70;50.10
39969;DHT22;25648;47.808;19.004;2022-09-28T07:50:26;22.80;49.50
39969;DHT22;25648;47.808;19.004;2022-09-28T07:52:52;23.00;50.60
39969;DHT22;25648;47.808;19.004;2022-09-28T07:55:17;23.40;51.30
39969;DHT22;25648;47.808;19.004;2022-09-28T07:57:43;23.90;49.80
39969;DHT22;25648;47.808;19.004;2022-09-28T08:00:11;24.20;49.70
39969;DHT22;25648;47.808;19.004;2022-09-28T08:02:37;24.30;49.60
39969;DHT22;25648;47.808;19.004;2022-09-28T08:05:04;24.30;49.30
39969;DHT22;25648;47.808;19.004;2022-09-28T08:07:30;24.00;48.60
39969;DHT22;25648;47.808;19.004;2022-09-28T08:09:57;23.70;50.00
39969;DHT22;25648;47.808;19.004;2022-09-28T08:12:22;23.60;49.70
39969;DHT22;25648;47.808;19.004;2022-09-28T08:14:48;23.60;50.30
39969;DHT22;25648;47.808;19.004;2022-09-28T08:17:15;23.60;49.30
39969;DHT22;25648;47.808;19.004;2022-09-28T08:19:41;23.70;49.00
39969;DHT22;25648;47.808;19.004;2022-09-28T08:22:25;23.70;48.50
39969;DHT22;25648;47.808;19.004;2022-09-28T08:24:51;23.80;50.10
39969;DHT22;25648;47.808;19.004;2022-09-28T08:27:16;24.00;50.80
39969;DHT22;25648;47.808;19.004;2022-09-28T08:29:42;24.20;49.40
39969;DHT22;25648;47.808;19.004;2022-09-28T08:32:09;24.20;49.60
39969;DHT22;25648;47.808;19.004;2022-09-28T08:34:39;24.20;50.90
39969;DHT22;25648;47.808;19.004;2022-09-28T08:37:07;24.20;50.30
39969;DHT22;25648;47.808;19.004;2022-09-28T08:39:35;24.20;50.00
39969;DHT22;25648;47.808;19.004;2022-09-28T08:42:22;24.10;50.00
39969;DHT22;25648;47.808;19.004;2022-09-28T08:44:55;24.00;50.10
39969;DHT22;25648;47.808;19.004;2022-09-28T08:47:54;23.80;52.60
39969;DHT22;25648;47.808;19.004;2022-09-28T08:51:16;23.50;50.70
39969;DHT22;25648;47.808;19.004;2022-09-28T08:54:12;23.40;52.70
39969;DHT22;25648;47.808;19.004;2022-09-28T08:56:48;23.30;52.60
39969;DHT22;25648;47.808;19.004;2022-09-28T08:59:24;23.40;53.20
39969;DHT22;25648;47.808;19.004;2022-09-28T09:02:24;23.40;53.00
39969;DHT22;25648;47.808;19.004;2022-09-28T09:04:51;23.10;53.10
39969;DHT22;25648;47.808;19.004;2022-09-28T09:12:41;23.30;53.30
39969;DHT22;25648;47.808;19.004;2022-09-28T09:15:49;23.50;52.50
39969;DHT22;25648;47.808;19.004;2022-09-28T09:18:16;23.80;52.70
39969;DHT22;25648;47.808;19.004;2022-09-28T09:21:18;24.10;52.70
39969;DHT22;25648;47.808;19.004;2022-09-28T09:23:56;24.40;51.40
39969;DHT22;25648;47.808;19.004;2022-09-28T09:26:35;24.40;52.30
39969;DHT22;25648;47.808;19.004;2022-09-28T09:31:55;24.10;52.10
39969;DHT22;25648;47.808;19.004;2022-09-28T09:34:28;24.20;52.70
39969;DHT22;25648;47.808;19.004;2022-09-28T09:45:27;24.00;52.20
39969;DHT22;25648;47.808;19.004;2022-09-28T09:48:03;23.80;51.50
39969;DHT22;25648;47.808;19.004;2022-09-28T09:56:35;24.50;53.00
39969;DHT22;25648;47.808;19.004;2022-09-28T09:59:13;23.90;55.00
39969;DHT22;25648;47.808;19.004;2022-09-28T10:01:43;24.10;53.30
39969;DHT22;25648;47.808;19.004;2022-09-28T10:04:26;24.10;52.80
39969;DHT22;25648;47.808;19.004;2022-09-28T10:07:00;24.30;52.50
39969;DHT22;25648;47.808;19.004;2022-09-28T10:09:36;24.20;51.40
39969;DHT22;25648;47.808;19.004;2022-09-28T10:12:03;23.90;52.90
39969;DHT22;25648;47.808;19.004;2022-09-28T10:14:32;24.00;53.00
39969;DHT22;25648;47.808;19.004;2022-09-28T10:17:00;23.60;52.70
39969;DHT22;25648;47.808;19.004;2022-09-28T10:19:31;23.40;52.90
39969;DHT22;25648;47.808;19.004;2022-09-28T10:21:58;23.90;52.90
39969;DHT22;25648;47.808;19.004;2022-09-28T10:27:39;24.60;53.10
39969;DHT22;25648;47.808;19.004;2022-09-28T10:32:40;25.00;52.20
39969;DHT22;25648;47.808;19.004;2022-09-28T10:35:23;25.10;51.60
39969;DHT22;25648;47.808;19.004;2022-09-28T10:37:59;25.50;51.90
39969;DHT22;25648;47.808;19.004;2022-09-28T10:40:44;25.70;51.50
39969;DHT22;25648;47.808;19.004;2022-09-28T10:43:23;25.20;50.80
39969;DHT22;25648;47.808;19.004;2022-09-28T10:51:05;23.70;52.70
39969;DHT22;25648;47.808;19.004;2022-09-28T10:53:31;23.70;52.40
39969;DHT22;25648;47.808;19.004;2022-09-28T10:56:01;23.80;53.10
39969;DHT22;25648;47.808;19.004;2022-09-28T10:58:38;23.70;52.70
39969;DHT22;25648;47.808;19.004;2022-09-28T11:01:11;23.50;52.60
39969;DHT22;25648;47.808;19.004;2022-09-28T11:06:23;23.20;51.40
39969;DHT22;25648;47.808;19.004;2022-09-28T11:08:50;22.70;52.90
39969;DHT22;25648;47.808;19.004;2022-09-28T11:11:17;22.60;53.40
39969;DHT22;25648;47.808;19.004;2022-09-28T11:13:48;22.80;53.00
39969;DHT22;25648;47.808;19.004;2022-09-28T11:16:29;22.20;53.70
39969;DHT22;25648;47.808;19.004;2022-09-28T11:18:58;22.30;53.70
39969;DHT22;25648;47.808;19.004;2022-09-28T11:21:29;22.90;54.30
39969;DHT22;25648;47.808;19.004;2022-09-28T11:24:03;23.10;52.00
39969;DHT22;25648;47.808;19.004;2022-09-28T11:26:41;23.40;53.80
39969;DHT22;25648;47.808;19.004;2022-09-28T11:29:19;23.70;53.60
39969;DHT22;25648;47.808;19.004;2022-09-28T11:31:47;24.10;51.90
39969;DHT22;25648;47.808;19.004;2022-09-28T11:34:19;23.80;50.50
39969;DHT22;25648;47.808;19.004;2022-09-28T11:42:09;22.80;51.20
39969;DHT22;25648;47.808;19.004;2022-09-28T11:47:44;22.40;52.60
39969;DHT22;25648;47.808;19.004;2022-09-28T11:55:31;23.00;52.10
39969;DHT22;25648;47.808;19.004;2022-09-28T11:58:01;23.20;53.30
39969;DHT22;25648;47.808;19.004;2022-09-28T12:00:28;23.50;53.60
39969;DHT22;25648;47.808;19.004;2022-09-28T12:03:29;24.00;53.00
39969;DHT22;25648;47.808;19.004;2022-09-28T12:06:05;24.20;51.90
39969;DHT22;25648;47.808;19.004;2022-09-28T12:08:42;24.20;52.00
39969;DHT22;25648;47.808;19.004;2022-09-28T12:11:36;24.00;52.40
39969;DHT22;25648;47.808;19.004;2022-09-28T12:14:01;23.70;51.60
39969;DHT22;25648;47.808;19.004;2022-09-28T12:16:34;23.00;53.30
39969;DHT22;25648;47.808;19.004;2022-09-28T12:19:05;22.70;53.30
39969;DHT22;25648;47.808;19.004;2022-09-28T12:21:50;22.90;54.50
39969;DHT22;25648;47.808;19.004;2022-09-28T12:24:25;23.40;53.40
39969;DHT22;25648;47.808;19.004;2022-09-28T12:26:57;23.40;51.70
39969;DHT22;25648;47.808;19.004;2022-09-28T12:29:32;23.10;52.00
39969;DHT22;25648;47.808;19.004;2022-09-28T12:32:13;23.00;52.80
39969;DHT22;25648;47.808;19.004;2022-09-28T12:34:43;23.20;54.60
39969;DHT22;25648;47.808;19.004;2022-09-28T12:48:22;23.20;53.70
39969;DHT22;25648;47.808;19.004;2022-09-28T12:51:40;23.20;54.10
39969;DHT22;25648;47.808;19.004;2022-09-28T12:54:02;22.80;53.40
39969;DHT22;25648;47.808;19.004;2022-09-28T12:56:51;23.10;53.50
39969;DHT22;25648;47.808;19.004;2022-09-28T12:59:20;23.00;53.20
39969;DHT22;25648;47.808;19.004;2022-09-28T13:08:19;23.00;53.30
39969;DHT22;25648;47.808;19.004;2022-09-28T13:16:34;22.60;53.90
39969;DHT22;25648;47.808;19.004;2022-09-28T13:22:12;22.60;53.20
39969;DHT22;25648;47.808;19.004;2022-09-28T13:24:26;22.50;53.00
39969;DHT22;25648;47.808;19.004;2022-09-28T13:26:58;22.00;54.00
39969;DHT22;25648;47.808;19.004;2022-09-28T13:29:27;22.00;54.50
39969;DHT22;25648;47.808;19.004;2022-09-28T13:31:55;22.60;55.00
39969;DHT22;25648;47.808;19.004;2022-09-28T13:34:27;22.90;53.10
39969;DHT22;25648;47.808;19.004;2022-09-28T13:37:19;22.90;53.30
39969;DHT22;25648;47.808;19.004;2022-09-28T13:56:18;23.90;53.30
39969;DHT22;25648;47.808;19.004;2022-09-28T13:59:24;23.90;53.10
39969;DHT22;25648;47.808;19.004;2022-09-28T14:05:04;23.70;51.60
39969;DHT22;25648;47.808;19.004;2022-09-28T14:12:49;23.00;52.80
39969;DHT22;25648;47.808;19.004;2022-09-28T14:18:16;23.40;54.20
39969;DHT22;25648;47.808;19.004;2022-09-28T14:21:05;23.80;52.50
39969;DHT22;25648;47.808;19.004;2022-09-28T14:26:50;23.30;52.30
39969;DHT22;25648;47.808;19.004;2022-09-28T14:29:31;22.90;52.10
39969;DHT22;25648;47.808;19.004;2022-09-28T14:34:41;22.90;54.00
39969;DHT22;25648;47.808;19.004;2022-09-28T14:37:38;22.90;53.00
39969;DHT22;25648;47.808;19.004;2022-09-28T14:40:24;23.10;53.40
39969;DHT22;25648;47.808;19.004;2022-09-28T14:56:43;23.40;52.40
39969;DHT22;25648;47.808;19.004;2022-09-28T14:59:23;23.30;53.20
39969;DHT22;25648;47.808;19.004;2022-09-28T15:04:28;23.50;52.70
39969;DHT22;25648;47.808;19.004;2022-09-28T15:06:54;23.70;53.10
39969;DHT22;25648;47.808;19.004;2022-09-28T15:09:33;23.80;52.30
39969;DHT22;25648;47.808;19.004;2022-09-28T15:14:59;23.50;51.70
39969;DHT22;25648;47.808;19.004;2022-09-28T15:17:32;23.50;53.00
39969;DHT22;25648;47.808;19.004;2022-09-28T15:20:21;23.70;53.20
39969;DHT22;25648;47.808;19.004;2022-09-28T15:22:50;23.40;52.50
39969;DHT22;25648;47.808;19.004;2022-09-28T15:25:21;22.70;52.70
39969;DHT22;25648;47.808;19.004;2022-09-28T15:27:57;22.60;54.10
39969;DHT22;25648;47.808;19.004;2022-09-28T15:32:50;23.20;53.10
39969;DHT22;25648;47.808;19.004;2022-09-28T15:35:25;23.80;52.80
39969;DHT22;25648;47.808;19.004;2022-09-28T15:37:53;24.10;52.00
39969;DHT22;25648;47.808;19.004;2022-09-28T15:40:37;24.20;52.40
39969;DHT22;25648;47.808;19.004;2022-09-28T15:43:31;24.40;50.80
39969;DHT22;25648;47.808;19.004;2022-09-28T15:46:12;24.20;50.60
39969;DHT22;25648;47.808;19.004;2022-09-28T15:48:49;23.80;51.90
39969;DHT22;25648;47.808;19.004;2022-09-28T15:51:18;23.80;51.50
39969;DHT22;25648;47.808;19.004;2022-09-28T15:54:07;23.70;52.10
39969;DHT22;25648;47.808;19.004;2022-09-28T15:56:56;23.80;51.00
39969;DHT22;25648;47.808;19.004;2022-09-28T15:59:36;23.70;52.00
39969;DHT22;25648;47.808;19.004;2022-09-28T16:02:20;23.60;52.20
39969;DHT22;25648;47.808;19.004;2022-09-28T16:04:58;23.70;52.40
39969;DHT22;25648;47.808;19.004;2022-09-28T16:07:38;23.30;52.70
39969;DHT22;25648;47.808;19.004;2022-09-28T16:17:36;24.10;53.20
39969;DHT22;25648;47.808;19.004;2022-09-28T16:20:24;24.20;53.50
39969;DHT22;25648;47.808;19.004;2022-09-28T16:22:53;24.30;53.90
39969;DHT22;25648;47.808;19.004;2022-09-28T16:25:23;24.30;52.80
39969;DHT22;25648;47.808;19.004;2022-09-28T16:27:50;24.30;52.30
39969;DHT22;25648;47.808;19.004;2022-09-28T16:30:28;24.20;52.50
39969;DHT22;25648;47.808;19.004;2022-09-28T16:32:59;23.40;52.40
39969;DHT22;25648;47.808;19.004;2022-09-28T16:38:13;23.30;56.50
39969;DHT22;25648;47.808;19.004;2022-09-28T16:40:44;23.50;56.00
39969;DHT22;25648;47.808;19.004;2022-09-28T16:45:51;23.80;54.80
39969;DHT22;25648;47.808;19.004;2022-09-28T16:48:25;23.30;54.50
39969;DHT22;25648;47.808;19.004;2022-09-28T16:50:51;23.20;53.60
39969;DHT22;25648;47.808;19.004;2022-09-28T16:53:19;23.30;53.60
39969;DHT22;25648;47.808;19.004;2022-09-28T16:56:04;23.50;54.00
39969;DHT22;25648;47.808;19.004;2022-09-28T16:58:29;23.70;53.20
39969;DHT22;25648;47.808;19.004;2022-09-28T17:00:57;23.90;54.00
39969;DHT22;25648;47.808;19.004;2022-09-28T17:03:23;24.10;53.40
39969;DHT22;25648;47.808;19.004;2022-09-28T17:05:49;24.10;52.80
39969;DHT22;25648;47.808;19.004;2022-09-28T17:08:17;23.80;52.60
39969;DHT22;25648;47.808;19.004;2022-09-28T17:10:52;23.50;54.10
39969;DHT22;25648;47.808;19.004;2022-09-28T17:13:23;23.00;54.30
39969;DHT22;25648;47.808;19.004;2022-09-28T17:15:56;23.00;56.50
39969;DHT22;25648;47.808;19.004;2022-09-28T17:18:22;23.30;57.00
39969;DHT22;25648;47.808;19.004;2022-09-28T17:20:49;23.40;54.30
39969;DHT22;25648;47.808;19.004;2022-09-28T17:23:16;23.00;54.70
39969;DHT22;25648;47.808;19.004;2022-09-28T17:25:43;22.90;55.20
39969;DHT22;25648;47.808;19.004;2022-09-28T17:28:33;23.10;54.70
39969;DHT22;25648;47.808;19.004;2022-09-28T17:31:00;23.40;54.60
39969;DHT22;25648;47.808;19.004;2022-09-28T17:33:26;23.30;56.20
39969;DHT22;25648;47.808;19.004;2022-09-28T17:36:00;23.30;56.30
39969;DHT22;25648;47.808;19.004;2022-09-28T17:38:26;23.60;54.60
39969;DHT22;25648;47.808;19.004;2022-09-28T17:40:52;23.80;54.70
39969;DHT22;25648;47.808;19.004;2022-09-28T17:43:18;23.80;55.10
39969;DHT22;25648;47.808;19.004;2022-09-28T17:45:45;23.90;54.70
39969;DHT22;25648;47.808;19.004;2022-09-28T17:48:15;24.00;53.20
39969;DHT22;25648;47.808;19.004;2022-09-28T17:50:42;23.90;54.30
39969;DHT22;25648;47.808;19.004;2022-09-28T17:53:09;23.80;53.50
39969;DHT22;25648;47.808;19.004;2022-09-28T17:55:36;23.90;53.90
39969;DHT22;25648;47.808;19.004;2022-09-28T17:58:20;23.90;53.30
39969;DHT22;25648;47.808;19.004;2022-09-28T18:00:50;23.80;53.10
39969;DHT22;25648;47.808;19.004;2022-09-28T18:03:21;23.40;52.90
39969;DHT22;25648;47.808;19.004;2022-09-28T18:05:49;23.40;53.80
39969;DHT22;25648;47.808;19.004;2022-09-28T18:08:18;23.40;52.90
39969;DHT22;25648;47.808;19.004;2022-09-28T18:10:44;23.50;52.50
39969;DHT22;25648;47.808;19.004;2022-09-28T18:13:11;23.40;52.60
39969;DHT22;25648;47.808;19.004;2022-09-28T18:15:37;23.30;52.90
39969;DHT22;25648;47.808;19.004;2022-09-28T18:18:03;23.20;53.00
39969;DHT22;25648;47.808;19.004;2022-09-28T18:20:29;23.40;53.20
39969;DHT22;25648;47.808;19.004;2022-09-28T18:22:57;23.50;52.90
39969;DHT22;25648;47.808;19.004;2022-09-28T18:25:22;23.50;52.80
39969;DHT22;25648;47.808;19.004;2022-09-28T18:27:48;23.30;53.00
39969;DHT22;25648;47.808;19.004;2022-09-28T18:30:14;23.00;54.10
39969;DHT22;25648;47.808;19.004;2022-09-28T18:32:39;22.90;54.20
39969;DHT22;25648;47.808;19.004;2022-09-28T18:35:07;22.80;54.70
39969;DHT22;25648;47.808;19.004;2022-09-28T18:37:39;22.60;55.30
39969;DHT22;25648;47.808;19.004;2022-09-28T18:40:08;22.60;54.60
39969;DHT22;25648;47.808;19.004;2022-09-28T18:42:34;22.10;55.70
39969;DHT22;25648;47.808;19.004;2022-09-28T18:45:02;21.70;57.10
39969;DHT22;25648;47.808;19.004;2022-09-28T18:47:27;22.00;56.90